Portada
METAR-TAF:

METAR-TAF

Aeroports :

Conakry, Guinea

latitud: 09-34N, longitud: 013-37W, altitud: 26 m

Observació

L'informe es va fer fa 1 hora i 42 minuts, a les 14:00 UTC
Vent 8 kt del Oest
Temperatura 30°C
Humitat 79%
Pressió 1009 hPa
Visibilitat: 5000 m
Escasses núvols a una alçada de 1500 ft
Cel ennuvolat a una alçada de 11000 ft
calitja

METAR: GUCY 101400Z 26008KT 5000 HZ FEW015 BKN110 30/26 Q1009 NOSIG

Hora: 15:42 (15:42 UTC)

Pronòstic

L'informe es va fer fa 4 hores i 42 minuts, a les 11:00 UTC
Pronòstic vàlid del 10 a les 12 UTC al 11 a les 18 UTC
Vent 8 kt del Nord-Oest
Visibilitat: 5000 m
Escasses núvols a una alçada de 2000 ft
Núvols disperses a una alçada de 12000 ft
calitja
Temporalment
l' 11 a les 04 UTC al 11 a les 09 UTC
Vent 2 kt amb direcció variable
Visibilitat: 3000 m
boirina

TAF: GUCY 101100Z 1012/1118 32008KT 5000 HZ FEW020 SCT120 TEMPO 1104/1109 VRB02KT 3000 BR

Observacions i pronòstics meteorològics de més de 4000 aeroports (METAR i TAF).

Les estacions disponibles són els punts grocs i vermells al mapa.

Posi el ratolí al punt desitjat per veure el nom de l'estació.

Feu clic per veure les observacions i els pronòstics meteorològics.

Per canviar el mapa: feu clic els botons verds amb una creu de color negre per apropar; al botó verd amb un guió per allunyar la imatge; o en les fletxes verdes per a mapes adjacents.


METAR-TAF: